Time;durP1;ratioP1;P1;durP2;ratioP2;P2;SDS_P1;SDS_P2;PMS_P1;PMS_P2;Temp;Humidity;BMP_temperature;BMP_pressure;BME280_temperature;BME280_humidity;BME280_pressure;Samples;Min_cycle;Max_cycle;Signal;HPM_P1;HPM_P2
2021/11/08 00:00:01;;;;;;;3.05;2.85;;;6.20;99.90;;;;;;5040054;28;20254;-75
2021/11/08 00:02:33;;;;;;;2.63;2.53;;;6.20;99.90;;;;;;5031259;28;21251;-77
2021/11/08 00:05:00;;;;;;;2.85;2.65;;;6.10;99.90;;;;;;5036505;28;20230;-76
2021/11/08 00:07:28;;;;;;;2.80;2.60;;;6.10;99.90;;;;;;5035246;28;20226;-76
2021/11/08 00:09:55;;;;;;;2.88;2.67;;;6.10;99.90;;;;;;5035760;28;20226;-76
2021/11/08 00:12:23;;;;;;;2.83;2.63;;;6.00;99.90;;;;;;5035721;28;20216;-76
2021/11/08 00:14:55;;;;;;;3.08;2.75;;;6.00;99.90;;;;;;5043312;28;20788;-76
2021/11/08 00:17:34;;;;;;;4.93;3.85;;;5.90;99.90;;;;;;5039322;28;20226;-77
2021/11/08 00:20:08;;;;;;;5.05;3.92;;;6.00;99.90;;;;;;5030317;28;20229;-76
2021/11/08 00:22:38;;;;;;;4.00;3.60;;;6.00;99.90;;;;;;5037690;28;20317;-77
2021/11/08 00:25:07;;;;;;;5.75;4.82;;;6.00;99.90;;;;;;5035631;28;20230;-77
2021/11/08 00:27:35;;;;;;;8.13;5.15;;;6.00;99.90;;;;;;5033512;28;20226;-76
2021/11/08 00:30:04;;;;;;;5.00;4.25;;;6.00;99.90;;;;;;5030284;28;21511;-75
2021/11/08 00:32:31;;;;;;;4.53;4.13;;;5.90;99.90;;;;;;5043753;28;20241;-73
2021/11/08 00:34:59;;;;;;;4.28;3.33;;;5.90;99.90;;;;;;5039752;28;20605;-75
2021/11/08 00:37:27;;;;;;;3.92;3.28;;;5.90;99.90;;;;;;5050308;28;20226;-76
2021/11/08 00:39:54;;;;;;;2.90;2.70;;;5.90;99.90;;;;;;5040804;28;20708;-77
2021/11/08 00:42:22;;;;;;;2.75;2.55;;;5.80;99.90;;;;;;5043769;28;20215;-75
2021/11/08 00:44:49;;;;;;;2.75;2.50;;;5.80;99.90;;;;;;5036173;28;20238;-76
2021/11/08 00:47:16;;;;;;;2.42;2.33;;;5.80;99.90;;;;;;5042771;28;20230;-75
2021/11/08 00:49:44;;;;;;;2.67;2.47;;;5.80;99.90;;;;;;5051950;28;20230;-75
2021/11/08 00:52:11;;;;;;;2.70;2.50;;;5.70;99.90;;;;;;5036664;28;20750;-76
2021/11/08 00:54:41;;;;;;;2.17;2.08;;;5.70;99.90;;;;;;5043022;28;20219;-75
2021/11/08 00:57:11;;;;;;;2.47;2.33;;;5.70;99.90;;;;;;5027937;28;20336;-75
2021/11/08 00:59:38;;;;;;;2.40;2.30;;;5.70;99.90;;;;;;5046757;28;20218;-75
2021/11/08 01:02:06;;;;;;;2.38;2.28;;;5.80;99.90;;;;;;5044773;28;20225;-77
2021/11/08 01:04:33;;;;;;;2.40;2.22;;;5.80;99.90;;;;;;5044898;28;20226;-76
2021/11/08 01:07:01;;;;;;;3.95;2.72;;;5.80;99.90;;;;;;5038810;28;20222;-76
2021/11/08 01:09:32;;;;;;;2.05;1.95;;;5.90;99.90;;;;;;5040177;28;20281;-76
2021/11/08 01:12:01;;;;;;;2.83;2.30;;;5.90;99.90;;;;;;5044404;28;20301;-76
2021/11/08 01:14:28;;;;;;;2.38;2.28;;;6.00;99.90;;;;;;5040461;28;20243;-76
2021/11/08 01:16:57;;;;;;;2.40;2.30;;;6.00;99.90;;;;;;5039484;28;20226;-75
2021/11/08 01:19:27;;;;;;;2.33;2.13;;;6.00;99.90;;;;;;5040305;28;20501;-77
2021/11/08 01:22:03;;;;;;;2.78;2.53;;;6.00;99.90;;;;;;5043874;28;20253;-75
2021/11/08 01:24:30;;;;;;;2.42;2.33;;;5.90;99.90;;;;;;5035216;28;20621;-75
2021/11/08 01:26:57;;;;;;;2.63;2.42;;;5.90;99.90;;;;;;5036257;28;20235;-77
2021/11/08 01:29:26;;;;;;;2.17;2.08;;;5.90;99.90;;;;;;5028709;28;20216;-76
2021/11/08 01:31:53;;;;;;;2.05;1.95;;;5.90;99.90;;;;;;5035381;28;20631;-77
2021/11/08 01:34:20;;;;;;;4.13;2.40;;;5.90;99.90;;;;;;5030055;28;20222;-76
2021/11/08 01:36:51;;;;;;;2.53;2.42;;;5.90;99.90;;;;;;5033530;28;20226;-76
2021/11/08 01:39:21;;;;;;;2.35;2.15;;;6.00;99.90;;;;;;5038187;28;20229;-75
2021/11/08 01:41:48;;;;;;;2.63;2.42;;;6.00;99.90;;;;;;5036741;28;20226;-76
2021/11/08 01:44:15;;;;;;;2.15;2.03;;;5.90;99.90;;;;;;5030882;28;20589;-75
2021/11/08 01:46:44;;;;;;;2.47;2.35;;;5.90;99.90;;;;;;5037173;28;20223;-76
2021/11/08 01:49:11;;;;;;;2.40;2.30;;;5.90;99.90;;;;;;5038765;28;20692;-77
2021/11/08 01:51:39;;;;;;;2.92;2.72;;;5.80;99.90;;;;;;5037316;28;20222;-76
2021/11/08 01:54:08;;;;;;;2.53;2.42;;;5.80;99.90;;;;;;5039550;28;20222;-76
2021/11/08 01:56:36;;;;;;;2.53;2.42;;;5.70;99.90;;;;;;5031109;28;20245;-76
2021/11/08 01:59:04;;;;;;;2.60;2.40;;;5.70;99.90;;;;;;5039394;28;20280;-77
2021/11/08 02:01:32;;;;;;;2.60;2.50;;;5.70;99.90;;;;;;5038656;28;20223;-75
2021/11/08 02:04:01;;;;;;;2.60;2.40;;;5.60;99.90;;;;;;5041470;28;20230;-77
2021/11/08 02:06:28;;;;;;;2.92;2.72;;;5.70;99.90;;;;;;5037805;28;20230;-76
2021/11/08 02:08:55;;;;;;;2.85;2.40;;;5.70;99.90;;;;;;5039067;28;20249;-75
2021/11/08 02:11:23;;;;;;;4.25;2.08;;;5.70;99.90;;;;;;5036309;28;20218;-75
2021/11/08 02:13:51;;;;;;;2.30;2.20;;;5.70;99.90;;;;;;5045084;28;20223;-77
2021/11/08 02:16:19;;;;;;;2.20;2.10;;;5.80;99.90;;;;;;5042151;28;20226;-75
2021/11/08 02:18:46;;;;;;;2.90;2.70;;;5.80;99.90;;;;;;5043683;28;20227;-76
2021/11/08 02:21:15;;;;;;;2.65;2.45;;;5.80;99.90;;;;;;5039913;28;20222;-76
2021/11/08 02:23:45;;;;;;;3.35;2.58;;;5.90;99.90;;;;;;5040959;28;20269;-75
2021/11/08 02:26:15;;;;;;;2.40;2.22;;;5.90;99.90;;;;;;5043155;28;20230;-75
2021/11/08 02:28:44;;;;;;;2.20;2.10;;;5.90;99.90;;;;;;5045175;28;20229;-75
2021/11/08 02:31:16;;;;;;;2.58;2.40;;;5.90;99.90;;;;;;5042018;28;20243;-75
2021/11/08 02:33:44;;;;;;;2.30;2.20;;;5.90;99.90;;;;;;5042577;28;20225;-75
2021/11/08 02:36:11;;;;;;;2.60;2.40;;;6.00;99.90;;;;;;5041139;28;20242;-77
2021/11/08 02:38:43;;;;;;;2.95;2.75;;;5.90;99.90;;;;;;5001504;22;20315;-76
2021/11/08 02:41:10;;;;;;;2.80;2.60;;;5.90;99.90;;;;;;5016350;28;20219;-74
2021/11/08 02:43:39;;;;;;;2.90;2.70;;;5.80;99.90;;;;;;5020134;28;20226;-75
2021/11/08 02:46:09;;;;;;;2.67;2.58;;;5.60;99.90;;;;;;5021378;28;20223;-73
2021/11/08 02:48:37;;;;;;;2.15;2.05;;;5.60;99.90;;;;;;5022108;28;20707;-74
2021/11/08 02:51:09;;;;;;;2.53;2.38;;;5.60;99.90;;;;;;5020497;28;20234;-75
2021/11/08 02:53:38;;;;;;;2.45;2.35;;;5.60;99.90;;;;;;5018662;28;20250;-74
2021/11/08 02:56:08;;;;;;;2.55;2.45;;;5.60;99.90;;;;;;5019978;28;20231;-74
2021/11/08 02:58:37;;;;;;;3.45;2.55;;;5.60;99.90;;;;;;5021693;28;20236;-74
2021/11/08 03:01:05;;;;;;;2.35;2.25;;;5.60;99.90;;;;;;5021652;28;20219;-73
2021/11/08 03:03:36;;;;;;;2.47;2.28;;;5.60;99.90;;;;;;5019936;28;20216;-74
2021/11/08 03:06:10;;;;;;;2.42;2.33;;;5.60;99.90;;;;;;5019272;28;20219;-74
2021/11/08 03:08:38;;;;;;;2.92;2.70;;;5.60;99.90;;;;;;5020017;28;20277;-74
2021/11/08 03:11:07;;;;;;;2.47;2.38;;;5.60;99.90;;;;;;5020422;28;20235;-74
2021/11/08 03:13:36;;;;;;;2.67;2.47;;;5.60;99.90;;;;;;5021944;28;20310;-76
2021/11/08 03:16:09;;;;;;;2.35;2.25;;;5.60;99.90;;;;;;5020026;28;20224;-74
2021/11/08 03:18:40;;;;;;;2.22;2.13;;;5.60;99.90;;;;;;5020556;28;20232;-75
2021/11/08 03:21:15;;;;;;;2.47;2.35;;;5.60;99.90;;;;;;5016593;28;20216;-74
2021/11/08 03:23:43;;;;;;;2.55;2.35;;;5.70;99.90;;;;;;5020425;28;20732;-73
2021/11/08 03:26:25;;;;;;;2.60;2.50;;;5.70;99.90;;;;;;5023379;28;20302;-76
2021/11/08 03:28:53;;;;;;;2.42;2.33;;;5.70;99.90;;;;;;5019808;28;20227;-74
2021/11/08 03:31:20;;;;;;;2.53;2.42;;;5.80;99.90;;;;;;5020325;28;20766;-73
2021/11/08 03:33:48;;;;;;;2.58;2.47;;;5.80;99.90;;;;;;5020103;28;20227;-74
2021/11/08 03:36:16;;;;;;;2.20;2.10;;;5.80;99.90;;;;;;5020816;28;20375;-73
2021/11/08 03:38:44;;;;;;;2.75;2.55;;;5.70;99.90;;;;;;5021815;28;20314;-73
2021/11/08 03:41:12;;;;;;;2.90;2.70;;;5.70;99.90;;;;;;5018562;28;20218;-74
2021/11/08 03:43:40;;;;;;;2.72;2.53;;;5.60;99.90;;;;;;5021807;28;20219;-75
2021/11/08 03:46:08;;;;;;;2.80;2.63;;;5.60;99.90;;;;;;5019952;28;20219;-72
2021/11/08 03:48:35;;;;;;;2.47;2.38;;;5.60;99.90;;;;;;5019763;28;20231;-76
2021/11/08 03:51:02;;;;;;;2.90;2.70;;;5.50;99.90;;;;;;5017361;28;20227;-75
2021/11/08 03:53:30;;;;;;;2.35;2.25;;;5.50;99.90;;;;;;5022920;28;20608;-74
2021/11/08 03:55:57;;;;;;;2.53;2.42;;;5.50;99.90;;;;;;5021769;28;20215;-73
2021/11/08 03:58:25;;;;;;;2.47;2.35;;;5.60;99.90;;;;;;5019299;28;20224;-73
2021/11/08 04:00:53;;;;;;;2.30;2.20;;;5.60;99.90;;;;;;5015507;28;20666;-76
2021/11/08 04:03:20;;;;;;;2.15;2.05;;;5.70;99.90;;;;;;5017189;28;20226;-72
2021/11/08 04:05:48;;;;;;;2.40;2.30;;;5.70;99.90;;;;;;5020664;28;20226;-74
2021/11/08 04:08:19;;;;;;;1.98;1.88;;;5.80;99.90;;;;;;5019413;28;20257;-74
2021/11/08 04:10:51;;;;;;;2.67;2.20;;;5.80;99.90;;;;;;5017590;28;20690;-74
2021/11/08 04:13:19;;;;;;;2.55;2.45;;;5.90;99.90;;;;;;5019887;28;20231;-74
2021/11/08 04:15:50;;;;;;;2.22;2.13;;;5.90;99.90;;;;;;5018161;28;20227;-74
2021/11/08 04:18:21;;;;;;;2.47;2.28;;;5.90;99.90;;;;;;5021852;28;20281;-73
2021/11/08 04:20:49;;;;;;;2.50;2.40;;;5.90;99.90;;;;;;5015988;28;20723;-73
2021/11/08 04:23:20;;;;;;;2.28;2.17;;;5.90;99.90;;;;;;5020461;28;20219;-74
2021/11/08 04:25:47;;;;;;;2.50;2.40;;;5.90;99.90;;;;;;5020116;28;20306;-74
2021/11/08 04:28:14;;;;;;;2.95;2.75;;;5.90;99.90;;;;;;4988734;28;20426;-74
2021/11/08 04:30:43;;;;;;;2.55;2.38;;;5.90;99.90;;;;;;5016299;28;20223;-73
2021/11/08 04:33:18;;;;;;;2.20;2.10;;;5.90;99.90;;;;;;5020178;28;20789;-73
2021/11/08 04:35:54;;;;;;;2.20;2.10;;;5.90;99.90;;;;;;5017002;28;20302;-74
2021/11/08 04:38:34;;;;;;;2.33;2.20;;;5.80;99.90;;;;;;5020732;28;20588;-74
2021/11/08 04:43:58;;;;;;;2.30;2.20;;;5.90;99.90;;;;;;5010595;28;20221;-74
2021/11/08 04:49:23;;;;;;;2.42;2.33;;;5.80;99.90;;;;;;5019293;28;20230;-76
2021/11/08 04:52:00;;;;;;;2.50;2.40;;;5.80;99.90;;;;;;5019669;28;20215;-75
2021/11/08 04:54:34;;;;;;;2.70;2.60;;;5.80;99.90;;;;;;5021521;28;20645;-74
2021/11/08 05:24:41;;;;;;;2.28;2.17;;;5.70;99.90;;;;;;5011933;28;20219;-76
2021/11/08 05:32:39;;;;;;;2.45;2.35;;;5.60;99.90;;;;;;4982732;28;20219;-75
2021/11/08 05:35:09;;;;;;;2.50;2.40;;;5.60;99.90;;;;;;5020446;28;20273;-74
2021/11/08 05:37:41;;;;;;;2.38;2.28;;;5.60;99.90;;;;;;5017349;28;20228;-74
2021/11/08 05:40:11;;;;;;;2.85;2.75;;;5.60;99.90;;;;;;5015771;28;20224;-75
2021/11/08 05:42:39;;;;;;;2.53;2.40;;;5.60;99.90;;;;;;5017207;28;20288;-74
2021/11/08 05:45:09;;;;;;;2.30;2.20;;;5.70;99.90;;;;;;5015528;28;20220;-74
2021/11/08 05:47:36;;;;;;;2.58;2.47;;;5.80;99.90;;;;;;5020349;28;20604;-75
2021/11/08 05:50:05;;;;;;;3.25;2.50;;;5.90;99.90;;;;;;5022085;28;20243;-73
2021/11/08 05:52:32;;;;;;;2.70;2.50;;;5.90;99.90;;;;;;5020676;28;20222;-75
2021/11/08 05:55:01;;;;;;;2.90;2.70;;;5.90;99.90;;;;;;5024691;28;20224;-74
2021/11/08 06:51:00;;;;;;;2.85;2.70;;;5.80;99.90;;;;;;5054109;27;21134;-75
2021/11/08 06:53:30;;;;;;;2.92;2.72;;;5.80;99.90;;;;;;5057358;27;20229;-75
2021/11/08 06:55:58;;;;;;;2.92;2.72;;;5.90;99.90;;;;;;5056958;27;20226;-76
2021/11/08 06:58:27;;;;;;;2.70;2.55;;;5.90;99.90;;;;;;5055969;28;20218;-75
2021/11/08 07:00:55;;;;;;;2.28;2.17;;;5.90;99.90;;;;;;5050446;28;20213;-75
2021/11/08 07:03:22;;;;;;;2.25;2.15;;;6.00;99.90;;;;;;5054553;28;20285;-77
2021/11/08 07:05:50;;;;;;;2.72;2.63;;;6.00;99.90;;;;;;5053792;28;20217;-78
2021/11/08 07:08:18;;;;;;;2.05;1.95;;;6.10;99.90;;;;;;5057693;28;20237;-79
2021/11/08 07:10:46;;;;;;;2.17;2.08;;;6.10;99.90;;;;;;5051409;28;20450;-77
2021/11/08 07:13:13;;;;;;;2.35;2.25;;;6.10;99.90;;;;;;5053639;28;20221;-76
2021/11/08 07:15:41;;;;;;;3.17;2.97;;;6.10;99.90;;;;;;5039510;28;20218;-78
2021/11/08 07:18:09;;;;;;;2.70;2.50;;;6.00;99.90;;;;;;5046651;28;20217;-74
2021/11/08 07:20:36;;;;;;;2.83;2.70;;;5.90;99.90;;;;;;5042939;28;20222;-77
2021/11/08 07:23:03;;;;;;;2.70;2.50;;;5.80;99.90;;;;;;5047917;28;20518;-74
2021/11/08 07:25:31;;;;;;;2.70;2.60;;;5.80;99.90;;;;;;5052445;28;20236;-80
2021/11/08 07:27:59;;;;;;;3.00;2.80;;;5.80;99.90;;;;;;5056408;28;20229;-78
2021/11/08 07:30:27;;;;;;;2.55;2.45;;;5.90;99.90;;;;;;5055667;28;20297;-75
2021/11/08 07:32:54;;;;;;;2.85;2.70;;;5.90;99.90;;;;;;5057713;28;20590;-75
2021/11/08 07:35:21;;;;;;;2.40;2.30;;;6.00;99.90;;;;;;5059041;28;20222;-78
2021/11/08 07:37:48;;;;;;;2.47;2.38;;;6.10;99.90;;;;;;5054273;28;20228;-76
2021/11/08 07:40:15;;;;;;;2.40;2.30;;;6.20;99.90;;;;;;5056541;28;20603;-75
2021/11/08 07:42:44;;;;;;;2.05;1.95;;;6.20;99.90;;;;;;5056589;28;20557;-75
2021/11/08 07:45:11;;;;;;;2.30;2.20;;;6.30;99.90;;;;;;5053174;28;20230;-74
2021/11/08 07:47:39;;;;;;;2.63;2.53;;;6.30;99.90;;;;;;5055977;28;20893;-79
2021/11/08 07:50:07;;;;;;;2.33;2.22;;;6.30;99.90;;;;;;5055513;28;20241;-77
2021/11/08 07:52:34;;;;;;;2.40;2.30;;;6.30;99.90;;;;;;5051785;28;20220;-74
2021/11/08 07:55:03;;;;;;;2.47;2.38;;;6.30;99.90;;;;;;5054035;28;20669;-77
2021/11/08 07:57:30;;;;;;;2.92;2.72;;;6.30;99.90;;;;;;5056984;28;20227;-74
2021/11/08 07:59:58;;;;;;;3.03;2.83;;;6.40;99.90;;;;;;5056731;28;20230;-76
2021/11/08 08:02:25;;;;;;;3.05;2.80;;;6.30;99.90;;;;;;5048784;28;20223;-77
2021/11/08 08:04:53;;;;;;;3.13;2.92;;;6.40;99.90;;;;;;5037754;28;20712;-80
2021/11/08 08:07:20;;;;;;;3.10;2.90;;;6.40;99.90;;;;;;5046735;28;20231;-74
2021/11/08 08:09:47;;;;;;;3.40;3.20;;;6.50;99.90;;;;;;5042792;28;20232;-76
2021/11/08 08:12:14;;;;;;;2.70;2.50;;;6.60;99.90;;;;;;5043150;28;20215;-74
2021/11/08 08:14:41;;;;;;;3.28;3.08;;;6.60;99.90;;;;;;5041937;28;20318;-79
2021/11/08 08:17:10;;;;;;;2.83;2.63;;;6.50;99.90;;;;;;5038442;28;20227;-73
2021/11/08 08:19:37;;;;;;;3.10;2.83;;;6.50;99.90;;;;;;5038158;28;20224;-75
2021/11/08 08:22:04;;;;;;;3.10;2.90;;;6.50;99.90;;;;;;5038837;28;20233;-74
2021/11/08 08:24:31;;;;;;;3.40;3.20;;;6.50;99.90;;;;;;5030200;28;20257;-73
2021/11/08 08:27:03;;;;;;;3.05;2.85;;;6.40;99.90;;;;;;5022838;28;20225;-74
2021/11/08 08:29:30;;;;;;;3.00;2.80;;;6.30;99.90;;;;;;5036224;28;20784;-76
2021/11/08 08:31:58;;;;;;;2.72;2.58;;;6.20;99.90;;;;;;5039614;28;20509;-75
2021/11/08 08:34:29;;;;;;;3.08;2.88;;;6.20;99.90;;;;;;5042101;28;20637;-73
2021/11/08 08:36:57;;;;;;;3.20;3.00;;;6.30;99.90;;;;;;5041377;28;20226;-74
2021/11/08 08:39:24;;;;;;;3.85;3.55;;;6.40;99.90;;;;;;5043378;22;21699;-76
2021/11/08 08:41:52;;;;;;;2.75;2.55;;;6.50;99.90;;;;;;5018761;28;20255;-76
2021/11/08 08:44:20;;;;;;;2.70;2.50;;;6.60;99.90;;;;;;5018134;28;20227;-75
2021/11/08 08:46:48;;;;;;;3.90;3.60;;;6.70;99.90;;;;;;5018821;28;20819;-76
2021/11/08 08:49:16;;;;;;;2.92;2.72;;;6.80;99.90;;;;;;5018017;28;20597;-78
2021/11/08 08:51:45;;;;;;;2.88;2.67;;;6.90;99.90;;;;;;5014586;28;20254;-76
2021/11/08 08:54:13;;;;;;;3.20;3.00;;;7.00;99.90;;;;;;5011468;28;20211;-72
2021/11/08 08:56:40;;;;;;;2.80;2.60;;;7.10;99.90;;;;;;5015143;28;20281;-75
2021/11/08 08:59:08;;;;;;;3.25;2.97;;;7.20;99.90;;;;;;5010109;28;20234;-74
2021/11/08 09:01:35;;;;;;;3.45;3.20;;;7.30;99.90;;;;;;5020001;28;20241;-77
2021/11/08 09:04:03;;;;;;;3.30;3.10;;;7.40;99.90;;;;;;5013529;28;20223;-78
2021/11/08 09:06:30;;;;;;;2.97;2.78;;;7.40;99.90;;;;;;5016921;28;20227;-76
2021/11/08 09:08:59;;;;;;;3.00;2.80;;;7.40;99.90;;;;;;5011831;28;20254;-76
2021/11/08 09:11:26;;;;;;;3.10;2.90;;;7.50;99.90;;;;;;5011318;28;20231;-78
2021/11/08 09:13:54;;;;;;;2.45;2.25;;;7.60;99.90;;;;;;5011090;28;20718;-78
2021/11/08 09:16:21;;;;;;;3.38;3.08;;;7.60;99.90;;;;;;5013986;28;20302;-76
2021/11/08 09:18:53;;;;;;;4.03;3.53;;;7.50;99.90;;;;;;5015286;28;20216;-77
2021/11/08 09:21:22;;;;;;;4.57;3.85;;;7.60;99.90;;;;;;5011450;28;20216;-78
2021/11/08 09:23:50;;;;;;;4.30;3.97;;;7.40;99.90;;;;;;5011276;28;20219;-79
2021/11/08 09:26:19;;;;;;;4.43;4.03;;;7.30;99.90;;;;;;5012656;28;20226;-78
2021/11/08 09:28:47;;;;;;;4.00;3.70;;;7.20;99.90;;;;;;5011357;28;20227;-74
2021/11/08 09:31:15;;;;;;;4.13;3.83;;;7.10;99.90;;;;;;5014113;28;20242;-77
2021/11/08 09:33:42;;;;;;;3.70;3.40;;;7.20;99.90;;;;;;5014961;28;20628;-75
2021/11/08 09:36:09;;;;;;;4.47;4.07;;;7.20;99.90;;;;;;5012958;28;20237;-78
2021/11/08 09:38:47;;;;;;;4.50;4.20;;;7.20;99.90;;;;;;5006007;28;20220;-76
2021/11/08 09:41:16;;;;;;;3.22;3.03;;;7.30;99.90;;;;;;5015716;28;20304;-75
2021/11/08 09:43:45;;;;;;;3.80;3.50;;;7.30;99.90;;;;;;5013688;28;20243;-78
2021/11/08 09:46:14;;;;;;;3.90;3.50;;;7.30;99.90;;;;;;5010583;28;20234;-78
2021/11/08 09:48:41;;;;;;;4.18;3.88;;;7.40;99.90;;;;;;5009858;28;20263;-78
2021/11/08 09:51:10;;;;;;;4.07;3.67;;;7.50;99.90;;;;;;5011633;28;20227;-79
2021/11/08 09:53:38;;;;;;;3.85;3.55;;;7.60;99.90;;;;;;5013859;28;20230;-77
2021/11/08 09:56:08;;;;;;;3.85;3.55;;;7.60;99.90;;;;;;5015482;28;20230;-77
2021/11/08 09:58:35;;;;;;;4.10;3.80;;;7.60;99.90;;;;;;5017587;28;20279;-79
2021/11/08 10:01:07;;;;;;;3.90;3.45;;;7.60;99.90;;;;;;5015164;28;20423;-78
2021/11/08 10:03:34;;;;;;;3.45;3.15;;;7.70;99.90;;;;;;5013265;28;20231;-79
2021/11/08 10:06:02;;;;;;;3.90;3.58;;;7.70;99.90;;;;;;5014087;28;20238;-79
2021/11/08 10:08:33;;;;;;;4.05;3.70;;;7.70;99.90;;;;;;5015496;28;20223;-77
2021/11/08 10:11:04;;;;;;;4.15;3.75;;;7.70;99.90;;;;;;5013513;28;20290;-78
2021/11/08 10:13:32;;;;;;;4.10;3.80;;;7.60;99.90;;;;;;5012093;28;20220;-79
2021/11/08 10:16:01;;;;;;;3.92;3.60;;;7.50;99.90;;;;;;5012048;28;20238;-78
2021/11/08 10:18:31;;;;;;;4.10;3.80;;;7.40;99.90;;;;;;5010726;28;20223;-75
2021/11/08 10:21:09;;;;;;;3.85;3.55;;;7.40;99.90;;;;;;5013466;28;20236;-77
2021/11/08 10:23:37;;;;;;;3.70;3.40;;;7.50;99.90;;;;;;5014900;28;20230;-75
2021/11/08 10:26:08;;;;;;;4.53;4.13;;;7.60;99.90;;;;;;5016410;28;20238;-78
2021/11/08 10:28:37;;;;;;;4.70;4.30;;;7.70;99.90;;;;;;5011401;28;20242;-76
2021/11/08 10:31:09;;;;;;;4.65;4.30;;;7.70;99.90;;;;;;5010588;28;20227;-77
2021/11/08 10:33:39;;;;;;;3.80;3.50;;;7.60;99.90;;;;;;5012567;28;20287;-75
2021/11/08 10:36:10;;;;;;;4.03;3.72;;;7.60;99.90;;;;;;5010779;28;20678;-77
2021/11/08 10:38:40;;;;;;;3.92;3.63;;;7.60;99.90;;;;;;5013222;28;20227;-75
2021/11/08 10:41:11;;;;;;;4.05;3.63;;;7.70;99.90;;;;;;5015117;28;20234;-76
2021/11/08 10:43:40;;;;;;;5.45;3.75;;;7.70;99.90;;;;;;5011606;28;20216;-77
2021/11/08 10:46:09;;;;;;;3.97;3.67;;;7.80;99.90;;;;;;5013619;28;20215;-76
2021/11/08 10:48:39;;;;;;;3.97;3.67;;;7.90;99.90;;;;;;5016312;28;20223;-77
2021/11/08 10:51:10;;;;;;;4.53;3.50;;;8.00;99.90;;;;;;4992315;28;20239;-75
2021/11/08 10:53:47;;;;;;;4.43;4.13;;;8.20;99.90;;;;;;5025225;28;20748;-78
2021/11/08 10:56:20;;;;;;;4.18;3.72;;;8.30;99.90;;;;;;5004805;28;20234;-77
2021/11/08 10:58:47;;;;;;;4.30;3.80;;;8.30;99.90;;;;;;5019100;28;20226;-75
2021/11/08 11:01:27;;;;;;;4.82;4.35;;;8.30;99.90;;;;;;5018337;28;20230;-74
2021/11/08 11:03:57;;;;;;;4.75;4.30;;;8.30;99.90;;;;;;5018873;28;20227;-74
2021/11/08 11:06:39;;;;;;;5.35;4.22;;;8.20;99.90;;;;;;5016421;28;20234;-75
2021/11/08 11:09:12;;;;;;;4.10;3.80;;;8.20;99.90;;;;;;5015365;28;20227;-77
2021/11/08 11:11:40;;;;;;;4.28;3.97;;;8.20;99.90;;;;;;5018683;28;20224;-76
2021/11/08 11:14:10;;;;;;;4.35;4.05;;;8.40;99.90;;;;;;5010822;28;20223;-76
2021/11/08 11:16:40;;;;;;;4.55;4.15;;;8.50;99.90;;;;;;5015480;28;20214;-76
2021/11/08 11:19:11;;;;;;;4.57;4.18;;;8.60;99.90;;;;;;5014154;28;20227;-75
2021/11/08 11:21:40;;;;;;;4.45;4.15;;;8.60;99.90;;;;;;5019592;28;20235;-76
2021/11/08 11:24:10;;;;;;;4.43;4.03;;;8.50;99.90;;;;;;5020541;28;20238;-75
2021/11/08 11:26:50;;;;;;;5.05;4.55;;;8.40;99.90;;;;;;5016359;28;20277;-75
2021/11/08 11:29:27;;;;;;;4.85;4.35;;;8.50;99.90;;;;;;5010573;28;20220;-76
2021/11/08 11:31:54;;;;;;;4.75;4.35;;;8.60;99.90;;;;;;5015831;28;20226;-75
2021/11/08 11:34:24;;;;;;;4.32;3.92;;;8.60;99.90;;;;;;4996646;28;20712;-75
2021/11/08 11:36:51;;;;;;;3.70;3.42;;;8.70;99.90;;;;;;5030520;28;20228;-75
2021/11/08 11:39:20;;;;;;;3.75;3.45;;;8.90;99.90;;;;;;5014971;28;20219;-75
2021/11/08 11:41:49;;;;;;;4.80;4.40;;;8.90;99.90;;;;;;5018255;28;20236;-76
2021/11/08 11:44:20;;;;;;;4.28;3.97;;;8.90;99.90;;;;;;5019454;28;20277;-76
2021/11/08 11:46:49;;;;;;;4.00;3.60;;;8.90;99.90;;;;;;5020411;28;20236;-75
2021/11/08 11:49:16;;;;;;;3.60;3.30;;;9.10;99.90;;;;;;5015276;28;20714;-77
2021/11/08 11:51:47;;;;;;;4.28;3.97;;;9.40;99.90;;;;;;5015963;28;20227;-78
2021/11/08 11:54:17;;;;;;;4.40;3.50;;;9.60;99.90;;;;;;5022750;28;20500;-77
2021/11/08 11:56:46;;;;;;;4.07;3.67;;;9.90;99.90;;;;;;5022117;28;20559;-76
2021/11/08 11:59:15;;;;;;;3.78;3.47;;;10.10;99.90;;;;;;5019441;28;20468;-76
2021/11/08 12:01:43;;;;;;;3.97;3.67;;;10.10;99.90;;;;;;5017180;28;20223;-76
2021/11/08 12:04:10;;;;;;;4.22;3.92;;;10.10;99.90;;;;;;5018288;28;20306;-75
2021/11/08 12:06:46;;;;;;;4.28;3.90;;;10.10;99.90;;;;;;5022571;28;20562;-75
2021/11/08 12:09:17;;;;;;;4.10;3.75;;;10.10;99.90;;;;;;5022498;28;20229;-78
2021/11/08 12:11:48;;;;;;;4.07;3.53;;;10.10;99.90;;;;;;5017406;28;20642;-77
2021/11/08 12:14:17;;;;;;;5.18;3.88;;;10.10;99.90;;;;;;5020003;28;20215;-77
2021/11/08 12:16:53;;;;;;;4.10;3.80;;;10.20;99.90;;;;;;5017924;28;20207;-79
2021/11/08 12:19:22;;;;;;;3.92;3.63;;;10.40;99.90;;;;;;5013860;28;20226;-75
2021/11/08 12:21:50;;;;;;;4.18;3.78;;;10.60;99.90;;;;;;5018643;28;20748;-78
2021/11/08 12:24:20;;;;;;;4.38;3.97;;;10.90;99.90;;;;;;5015443;28;20580;-77
2021/11/08 12:26:48;;;;;;;3.92;3.63;;;11.40;99.90;;;;;;5015928;28;20224;-79
2021/11/08 12:29:19;;;;;;;4.85;4.45;;;11.70;99.90;;;;;;5015387;28;20609;-78
2021/11/08 12:31:47;;;;;;;5.13;4.63;;;11.80;99.90;;;;;;5016897;28;20756;-78
2021/11/08 12:34:21;;;;;;;5.28;4.03;;;11.90;99.90;;;;;;5018290;28;20223;-77
2021/11/08 12:36:59;;;;;;;4.45;4.05;;;12.10;99.90;;;;;;5021407;28;20748;-77
2021/11/08 12:39:29;;;;;;;4.38;3.97;;;12.20;99.90;;;;;;5021029;28;20227;-77
2021/11/08 12:42:03;;;;;;;4.45;4.05;;;12.30;99.90;;;;;;5011906;28;20223;-75
2021/11/08 12:44:37;;;;;;;4.35;3.95;;;12.30;99.90;;;;;;5023091;28;20263;-76
2021/11/08 12:47:05;;;;;;;4.90;3.83;;;12.30;99.90;;;;;;5019403;28;20220;-77
2021/11/08 12:49:37;;;;;;;3.75;3.45;;;12.40;99.90;;;;;;5019205;28;20252;-77
2021/11/08 12:52:11;;;;;;;3.78;3.47;;;12.40;99.90;;;;;;5013152;28;20224;-76
2021/11/08 12:54:49;;;;;;;3.85;3.45;;;12.60;99.90;;;;;;5015784;28;20213;-78
2021/11/08 12:57:19;;;;;;;3.50;3.20;;;12.80;99.90;;;;;;5019104;28;20222;-78
2021/11/08 12:59:48;;;;;;;3.72;3.42;;;12.80;99.90;;;;;;5018855;28;20232;-79
2021/11/08 13:02:25;;;;;;;3.63;3.33;;;12.90;99.90;;;;;;5016194;28;20227;-78
2021/11/08 13:04:53;;;;;;;4.35;3.65;;;12.90;99.90;;;;;;5011408;28;20227;-79
2021/11/08 13:07:21;;;;;;;4.05;3.53;;;12.80;99.90;;;;;;5017355;28;20603;-78
2021/11/08 13:09:52;;;;;;;3.72;3.42;;;12.90;99.90;;;;;;5015443;28;20223;-79
2021/11/08 13:12:23;;;;;;;5.10;3.58;;;12.70;99.90;;;;;;5013458;28;20232;-77
2021/11/08 13:15:03;;;;;;;3.83;3.38;;;12.60;99.90;;;;;;5016394;28;20232;-79
2021/11/08 13:17:30;;;;;;;4.80;3.42;;;12.60;99.90;;;;;;5017310;28;20239;-78
2021/11/08 13:20:04;;;;;;;3.47;3.17;;;12.80;99.90;;;;;;5017009;28;20729;-78
2021/11/08 13:22:34;;;;;;;3.30;3.00;;;12.90;99.90;;;;;;5019672;28;20559;-79
2021/11/08 13:25:08;;;;;;;2.90;2.70;;;13.00;99.90;;;;;;5020775;28;20277;-77
2021/11/08 13:27:36;;;;;;;3.38;3.08;;;13.00;99.90;;;;;;5017978;28;20290;-79
2021/11/08 13:30:06;;;;;;;3.72;3.17;;;13.00;99.90;;;;;;5021945;28;20228;-76
2021/11/08 13:32:34;;;;;;;3.63;2.80;;;13.10;99.90;;;;;;5015259;28;20226;-80
2021/11/08 13:35:09;;;;;;;2.85;2.65;;;13.10;99.90;;;;;;5020693;28;20215;-76
2021/11/08 13:37:39;;;;;;;2.92;2.70;;;13.20;99.90;;;;;;5016439;28;20231;-79
2021/11/08 13:40:19;;;;;;;2.90;2.70;;;13.10;99.90;;;;;;5015082;28;20231;-77
2021/11/08 13:42:47;;;;;;;3.30;3.00;;;12.90;99.90;;;;;;5016877;28;20227;-79
2021/11/08 13:45:14;;;;;;;2.92;2.72;;;12.70;99.90;;;;;;4997850;28;20505;-77
2021/11/08 13:47:43;;;;;;;3.97;3.13;;;12.50;99.90;;;;;;5013625;28;20219;-78
2021/11/08 13:50:14;;;;;;;3.03;2.60;;;11.90;99.90;;;;;;5015345;28;20310;-78
2021/11/08 13:52:41;;;;;;;4.15;2.85;;;11.30;99.90;;;;;;5016175;28;20232;-78
2021/11/08 13:55:11;;;;;;;2.80;2.60;;;10.80;99.90;;;;;;5018913;28;20227;-77
2021/11/08 13:57:44;;;;;;;2.83;2.63;;;10.40;99.90;;;;;;5018911;28;20227;-77
2021/11/08 14:00:15;;;;;;;3.00;2.80;;;10.20;99.90;;;;;;5010790;28;20227;-77
2021/11/08 14:02:43;;;;;;;3.95;3.15;;;10.10;99.90;;;;;;5017469;28;20600;-79
2021/11/08 14:05:14;;;;;;;2.70;2.50;;;10.00;99.90;;;;;;5014766;28;20967;-79
2021/11/08 14:07:41;;;;;;;2.25;2.03;;;9.80;99.90;;;;;;5007121;28;20219;-79
2021/11/08 14:10:12;;;;;;;2.28;2.08;;;9.80;99.90;;;;;;5016043;28;20231;-79
2021/11/08 14:12:40;;;;;;;2.92;2.53;;;9.90;99.90;;;;;;5017637;28;20756;-78
2021/11/08 14:15:10;;;;;;;2.90;2.70;;;10.00;99.90;;;;;;5015995;28;20230;-77
2021/11/08 14:17:42;;;;;;;2.83;2.50;;;10.00;99.90;;;;;;5012412;28;20257;-75
2021/11/08 14:20:12;;;;;;;2.70;2.50;;;9.90;99.90;;;;;;5013579;28;20259;-78
2021/11/08 14:22:41;;;;;;;2.40;2.20;;;9.90;99.90;;;;;;5016405;28;20231;-78
2021/11/08 14:25:10;;;;;;;2.58;2.38;;;9.90;99.90;;;;;;5013289;28;20226;-78
2021/11/08 14:27:40;;;;;;;3.15;2.95;;;9.90;99.90;;;;;;5015499;28;20230;-77
2021/11/08 14:30:13;;;;;;;2.88;2.67;;;9.90;99.90;;;;;;5013618;28;20227;-78
2021/11/08 14:32:41;;;;;;;3.00;2.80;;;9.90;99.90;;;;;;5018223;28;20725;-79
2021/11/08 14:35:13;;;;;;;2.92;2.72;;;9.90;99.90;;;;;;5014550;28;20650;-78
2021/11/08 14:37:44;;;;;;;2.20;2.10;;;9.90;99.90;;;;;;5011940;28;20220;-78